Time;durP1;ratioP1;P1;durP2;ratioP2;P2;SDS_P1;SDS_P2;PMS_P1;PMS_P2;Temp;Humidity;BMP_temperature;BMP_pressure;BME280_temperature;BME280_humidity;BME280_pressure;Samples;Min_cycle;Max_cycle;Signal;HPM_P1;HPM_P2
2023/08/02 00:01:53;;;;;;;;;;;;;;;;;;5053607;27;92875;-69
2023/08/02 00:04:18;;;;;;;;;;;;;;;;;;5053818;27;93152;-69
2023/08/02 00:06:43;;;;;;;;;;;;;;;;;;5053877;27;93642;-69
2023/08/02 00:09:08;;;;;;;;;;;;;;;;;;5054605;27;93575;-68
2023/08/02 00:11:34;;;;;;;;;;;;;;;;;;5039037;27;95057;-75
2023/08/02 00:13:59;;;;;;;;;;;;;;;;;;5059462;27;93071;-65
2023/08/02 00:16:24;;;;;;;;;;;;;;;;;;5053055;27;93790;-66
2023/08/02 00:18:49;;;;;;;;;;;;;;;;;;5056058;27;93186;-70
2023/08/02 00:21:14;;;;;;;;;;;;;;;;;;5046439;27;94185;-66
2023/08/02 00:23:40;;;;;;;;;;;;;;;;;;5051570;27;92659;-67
2023/08/02 00:26:05;;;;;;;;;;;;;;;;;;5053072;27;92532;-68
2023/08/02 00:28:31;;;;;;;;;;;;;;;;;;5035119;27;96071;-66
2023/08/02 00:30:56;;;;;;;;;;;;;;;;;;5048424;27;92894;-72
2023/08/02 00:33:21;;;;;;;;;;;;;;;;;;5057300;27;92339;-71
2023/08/02 00:35:48;;;;;;;;;;;;;;;;;;5052276;27;91923;-71
2023/08/02 00:38:13;;;;;;;;;;;;;;;;;;5046665;27;93021;-72
2023/08/02 00:40:39;;;;;;;;;;;;;;;;;;5050498;27;93761;-71
2023/08/02 00:43:04;;;;;;;;;;;;;;;;;;5054465;27;93586;-75
2023/08/02 00:45:29;;;;;;;;;;;;;;;;;;5053324;27;93425;-79
2023/08/02 00:47:56;;;;;;;;;;;;;;;;;;5056439;27;92485;-72
2023/08/02 00:50:21;;;;;;;;;;;;;;;;;;5049413;27;92629;-77
2023/08/02 00:52:47;;;;;;;;;;;;;;;;;;5055622;27;92714;-71
2023/08/02 00:55:12;;;;;;;;;;;;;;;;;;5056856;27;93254;-66
2023/08/02 00:57:37;;;;;;;;;;;;;;;;;;5056944;27;92877;-78
2023/08/02 01:00:04;;;;;;;;;;;;;;;;;;5054609;27;92615;-70
2023/08/02 01:02:29;;;;;;;;;;;;;;;;;;5051989;27;92911;-69
2023/08/02 01:04:54;;;;;;;;;;;;;;;;;;5050627;27;92690;-71
2023/08/02 01:07:22;;;;;;;;;;;;;;;;;;5058229;27;93718;-74
2023/08/02 01:09:52;;;;;;;;;;;;;;;;;;5055135;27;92668;-73
2023/08/02 01:12:19;;;;;;;;;;;;;;;;;;5049001;27;92263;-65
2023/08/02 01:14:49;;;;;;;;;;;;;;;;;;5057536;27;93263;-73
2023/08/02 01:17:15;;;;;;;;;;;;;;;;;;5059112;27;92728;-77
2023/08/02 01:19:42;;;;;;;;;;;;;;;;;;5051249;27;92598;-76
2023/08/02 01:22:07;;;;;;;;;;;;;;;;;;5056102;27;92776;-76
2023/08/02 01:24:34;;;;;;;;;;;;;;;;;;5057554;27;91938;-78
2023/08/02 01:27:03;;;;;;;;;;;;;;;;;;5048684;27;93075;-75
2023/08/02 01:29:29;;;;;;;;;;;;;;;;;;5048898;27;93615;-68
2023/08/02 01:31:55;;;;;;;;;;;;;;;;;;5058070;27;94850;-72
2023/08/02 01:34:20;;;;;;;;;;;;;;;;;;5058008;27;93037;-70
2023/08/02 01:36:46;;;;;;;;;;;;;;;;;;5052738;27;92754;-69
2023/08/02 01:39:11;;;;;;;;;;;;;;;;;;5053509;27;94133;-72
2023/08/02 01:41:36;;;;;;;;;;;;;;;;;;5030233;27;95298;-74
2023/08/02 01:44:01;;;;;;;;;;;;;;;;;;5031676;27;92779;-70
2023/08/02 01:46:26;;;;;;;;;;;;;;;;;;5054406;27;92476;-71
2023/08/02 01:48:52;;;;;;;;;;;;;;;;;;5050428;27;92963;-79
2023/08/02 01:51:17;;;;;;;;;;;;;;;;;;5051161;27;93006;-69
2023/08/02 01:53:42;;;;;;;;;;;;;;;;;;5050577;27;94322;-70
2023/08/02 01:56:07;;;;;;;;;;;;;;;;;;5048116;27;93919;-70
2023/08/02 01:58:32;;;;;;;;;;;;;;;;;;5061786;27;92625;-67
2023/08/02 02:00:58;;;;;;;;;;;;;;;;;;5059451;27;92887;-66
2023/08/02 02:03:23;;;;;;;;;;;;;;;;;;5054013;27;92851;-70
2023/08/02 02:08:52;;;;;;;;;;;;;;;;;;5055727;27;93131;-69
2023/08/02 02:11:17;;;;;;;;;;;;;;;;;;5053548;27;92350;-65
2023/08/02 02:13:43;;;;;;;;;;;;;;;;;;5046493;27;95334;-68
2023/08/02 02:16:08;;;;;;;;;;;;;;;;;;5057807;27;92839;-71
2023/08/02 02:18:33;;;;;;;;;;;;;;;;;;5056603;27;92900;-73
2023/08/02 02:20:58;;;;;;;;;;;;;;;;;;5057489;27;93226;-71
2023/08/02 02:23:24;;;;;;;;;;;;;;;;;;5040180;27;94080;-68
2023/08/02 02:25:49;;;;;;;;;;;;;;;;;;5062631;27;93725;-70
2023/08/02 02:28:14;;;;;;;;;;;;;;;;;;5039455;27;92747;-74
2023/08/02 02:30:43;;;;;;;;;;;;;;;;;;5059431;27;93012;-75
2023/08/02 02:33:08;;;;;;;;;;;;;;;;;;5060416;27;93514;-75
2023/08/02 02:35:33;;;;;;;;;;;;;;;;;;5056557;27;92907;-75
2023/08/02 02:37:58;;;;;;;;;;;;;;;;;;5060592;27;92180;-68
2023/08/02 02:40:23;;;;;;;;;;;;;;;;;;5056798;27;93101;-77
2023/08/02 02:42:49;;;;;;;;;;;;;;;;;;5060939;27;92762;-67
2023/08/02 02:45:14;;;;;;;;;;;;;;;;;;5055821;27;93616;-73
2023/08/02 02:47:39;;;;;;;;;;;;;;;;;;5057441;27;94150;-71
2023/08/02 02:50:04;;;;;;;;;;;;;;;;;;5057915;27;92942;-68
2023/08/02 02:52:30;;;;;;;;;;;;;;;;;;5057366;27;93326;-75
2023/08/02 02:54:56;;;;;;;;;;;;;;;;;;5056637;27;93231;-77
2023/08/02 02:57:21;;;;;;;;;;;;;;;;;;5050893;27;92356;-72
2023/08/02 02:59:46;;;;;;;;;;;;;;;;;;5051920;27;92922;-68
2023/08/02 03:02:11;;;;;;;;;;;;;;;;;;5050481;27;93054;-66
2023/08/02 03:04:36;;;;;;;;;;;;;;;;;;5060696;27;93979;-66
2023/08/02 03:07:02;;;;;;;;;;;;;;;;;;5048389;27;92655;-65
2023/08/02 03:09:27;;;;;;;;;;;;;;;;;;5049930;27;93195;-66
2023/08/02 03:11:52;;;;;;;;;;;;;;;;;;5056230;27;93266;-73
2023/08/02 03:14:18;;;;;;;;;;;;;;;;;;5056802;27;93105;-74
2023/08/02 03:16:43;;;;;;;;;;;;;;;;;;5058621;27;92742;-73
2023/08/02 03:19:09;;;;;;;;;;;;;;;;;;5052835;27;92813;-72
2023/08/02 03:21:34;;;;;;;;;;;;;;;;;;5055972;27;93146;-75
2023/08/02 03:23:59;;;;;;;;;;;;;;;;;;5053160;27;92349;-74
2023/08/02 03:26:25;;;;;;;;;;;;;;;;;;5059790;27;92504;-75
2023/08/02 03:28:50;;;;;;;;;;;;;;;;;;5052690;27;92845;-69
2023/08/02 03:31:15;;;;;;;;;;;;;;;;;;5054507;27;92588;-69
2023/08/02 03:33:41;;;;;;;;;;;;;;;;;;5045821;27;94854;-69
2023/08/02 03:36:06;;;;;;;;;;;;;;;;;;5056350;27;92430;-73
2023/08/02 03:38:32;;;;;;;;;;;;;;;;;;5051309;27;92415;-69
2023/08/02 03:40:57;;;;;;;;;;;;;;;;;;5058724;27;93781;-72
2023/08/02 03:43:22;;;;;;;;;;;;;;;;;;5055092;27;92283;-66
2023/08/02 03:45:49;;;;;;;;;;;;;;;;;;5057143;27;92751;-66
2023/08/02 03:48:14;;;;;;;;;;;;;;;;;;5057299;27;93555;-69
2023/08/02 03:50:40;;;;;;;;;;;;;;;;;;5051968;27;92520;-71
2023/08/02 03:53:05;;;;;;;;;;;;;;;;;;5053576;27;92925;-68
2023/08/02 03:55:30;;;;;;;;;;;;;;;;;;5057830;27;92717;-69
2023/08/02 03:57:56;;;;;;;;;;;;;;;;;;5053343;27;93254;-76
2023/08/02 04:00:21;;;;;;;;;;;;;;;;;;5051699;27;93531;-77
2023/08/02 04:02:46;;;;;;;;;;;;;;;;;;5060638;27;92385;-76
2023/08/02 04:05:11;;;;;;;;;;;;;;;;;;5055594;27;92789;-72
2023/08/02 04:07:36;;;;;;;;;;;;;;;;;;5052563;27;93654;-73
2023/08/02 04:10:02;;;;;;;;;;;;;;;;;;5060405;27;92274;-73
2023/08/02 04:12:27;;;;;;;;;;;;;;;;;;5054462;27;92788;-70
2023/08/02 04:14:53;;;;;;;;;;;;;;;;;;5055210;27;91535;-75
2023/08/02 04:17:18;;;;;;;;;;;;;;;;;;5057117;27;92407;-77
2023/08/02 04:19:44;;;;;;;;;;;;;;;;;;5053507;27;92623;-76
2023/08/02 04:22:09;;;;;;;;;;;;;;;;;;5050865;27;93200;-70
2023/08/02 04:24:34;;;;;;;;;;;;;;;;;;5054429;27;93508;-69
2023/08/02 04:26:59;;;;;;;;;;;;;;;;;;5054700;27;95051;-74
2023/08/02 04:29:24;;;;;;;;;;;;;;;;;;5050054;27;92619;-75
2023/08/02 04:31:50;;;;;;;;;;;;;;;;;;5056831;27;93695;-77
2023/08/02 04:34:15;;;;;;;;;;;;;;;;;;5048540;27;92638;-68
2023/08/02 04:36:40;;;;;;;;;;;;;;;;;;5058598;27;92535;-72
2023/08/02 04:39:07;;;;;;;;;;;;;;;;;;5055629;27;92056;-70
2023/08/02 04:41:32;;;;;;;;;;;;;;;;;;5047171;27;93261;-69
2023/08/02 04:43:57;;;;;;;;;;;;;;;;;;5058818;27;92902;-69
2023/08/02 04:46:25;;;;;;;;;;;;;;;;;;5059554;27;93747;-66
2023/08/02 04:48:50;;;;;;;;;;;;;;;;;;5049190;27;92463;-68
2023/08/02 04:51:15;;;;;;;;;;;;;;;;;;5058087;27;92577;-74
2023/08/02 04:53:42;;;;;;;;;;;;;;;;;;5057735;27;93634;-73
2023/08/02 04:56:08;;;;;;;;;;;;;;;;;;5052072;27;93165;-72
2023/08/02 04:58:34;;;;;;;;;;;;;;;;;;5054019;27;92903;-73
2023/08/02 05:01:04;;;;;;;;;;;;;;;;;;5053567;27;92293;-71
2023/08/02 05:03:30;;;;;;;;;;;;;;;;;;5056541;27;93551;-76
2023/08/02 05:05:59;;;;;;;;;;;;;;;;;;5049540;27;93049;-77
2023/08/02 05:08:24;;;;;;;;;;;;;;;;;;5051936;27;93255;-77
2023/08/02 05:10:49;;;;;;;;;;;;;;;;;;5052203;27;94193;-75
2023/08/02 05:13:14;;;;;;;;;;;;;;;;;;5058330;27;92648;-74
2023/08/02 05:15:39;;;;;;;;;;;;;;;;;;5048837;27;92917;-65
2023/08/02 05:18:05;;;;;;;;;;;;;;;;;;5053489;27;93146;-74
2023/08/02 05:20:31;;;;;;;;;;;;;;;;;;5054608;27;93520;-67
2023/08/02 05:22:57;;;;;;;;;;;;;;;;;;5052702;27;92465;-66
2023/08/02 05:25:22;;;;;;;;;;;;;;;;;;5054112;27;92836;-73
2023/08/02 05:27:47;;;;;;;;;;;;;;;;;;5052797;27;91640;-67
2023/08/02 05:30:12;;;;;;;;;;;;;;;;;;5057398;27;92663;-68
2023/08/02 05:32:38;;;;;;;;;;;;;;;;;;5058774;27;92768;-67
2023/08/02 05:35:03;;;;;;;;;;;;;;;;;;5059919;27;93246;-69
2023/08/02 05:37:29;;;;;;;;;;;;;;;;;;5055755;27;92809;-73
2023/08/02 05:39:55;;;;;;;;;;;;;;;;;;5056446;27;92767;-78
2023/08/02 05:42:20;;;;;;;;;;;;;;;;;;5059836;27;93421;-71
2023/08/02 05:44:45;;;;;;;;;;;;;;;;;;5056830;27;93457;-69
2023/08/02 05:47:10;;;;;;;;;;;;;;;;;;5057337;27;94028;-86
2023/08/02 05:49:35;;;;;;;;;;;;;;;;;;5058688;27;93552;-74
2023/08/02 05:52:01;;;;;;;;;;;;;;;;;;5060975;27;92278;-66
2023/08/02 05:54:26;;;;;;;;;;;;;;;;;;5054135;27;92297;-70
2023/08/02 05:56:51;;;;;;;;;;;;;;;;;;5061859;27;92825;-74
2023/08/02 05:59:16;;;;;;;;;;;;;;;;;;5059776;27;94092;-67
2023/08/02 06:01:42;;;;;;;;;;;;;;;;;;5062067;27;93242;-72
2023/08/02 06:04:07;;;;;;;;;;;;;;;;;;5058079;27;92597;-74
2023/08/02 06:06:32;;;;;;;;;;;;;;;;;;5062557;27;92551;-70
2023/08/02 06:08:57;;;;;;;;;;;;;;;;;;5057532;27;92715;-74
2023/08/02 06:11:23;;;;;;;;;;;;;;;;;;5053627;27;93887;-77
2023/08/02 06:13:48;;;;;;;;;;;;;;;;;;5050520;27;93001;-68
2023/08/02 06:16:13;;;;;;;;;;;;;;;;;;5052378;27;93300;-69
2023/08/02 06:18:38;;;;;;;;;;;;;;;;;;5056757;27;92714;-69
2023/08/02 06:21:04;;;;;;;;;;;;;;;;;;5055693;27;92429;-68
2023/08/02 06:23:29;;;;;;;;;;;;;;;;;;5033552;27;95409;-67
2023/08/02 06:25:54;;;;;;;;;;;;;;;;;;5047964;27;93345;-66
2023/08/02 06:28:19;;;;;;;;;;;;;;;;;;5056922;27;93191;-74
2023/08/02 06:30:45;;;;;;;;;;;;;;;;;;5057838;27;93017;-69
2023/08/02 06:33:10;;;;;;;;;;;;;;;;;;5058553;27;92853;-69
2023/08/02 06:35:35;;;;;;;;;;;;;;;;;;5050004;27;92579;-72
2023/08/02 06:38:00;;;;;;;;;;;;;;;;;;5052192;27;92721;-71
2023/08/02 06:40:25;;;;;;;;;;;;;;;;;;5058845;27;91854;-73
2023/08/02 06:42:51;;;;;;;;;;;;;;;;;;5052927;27;92665;-70
2023/08/02 06:45:16;;;;;;;;;;;;;;;;;;5055963;27;92282;-68
2023/08/02 06:47:41;;;;;;;;;;;;;;;;;;5059330;27;93950;-72
2023/08/02 06:50:06;;;;;;;;;;;;;;;;;;5057830;27;92613;-71
2023/08/02 06:52:32;;;;;;;;;;;;;;;;;;5051173;27;93466;-70
2023/08/02 06:54:58;;;;;;;;;;;;;;;;;;5058003;27;93309;-73
2023/08/02 06:57:24;;;;;;;;;;;;;;;;;;5054538;27;93172;-72
2023/08/02 06:59:52;;;;;;;;;;;;;;;;;;5057624;27;92336;-68
2023/08/02 07:02:18;;;;;;;;;;;;;;;;;;5054093;27;94023;-70
2023/08/02 07:04:43;;;;;;;;;;;;;;;;;;5049367;27;91931;-72
2023/08/02 07:07:08;;;;;;;;;;;;;;;;;;5056100;27;93166;-73
2023/08/02 07:09:33;;;;;;;;;;;;;;;;;;5052979;27;92948;-69
2023/08/02 07:11:59;;;;;;;;;;;;;;;;;;5052221;27;93988;-74
2023/08/02 07:14:24;;;;;;;;;;;;;;;;;;5056437;27;93676;-75
2023/08/02 07:16:49;;;;;;;;;;;;;;;;;;5040520;27;94087;-74
2023/08/02 07:19:14;;;;;;;;;;;;;;;;;;5035552;27;92744;-74
2023/08/02 07:21:39;;;;;;;;;;;;;;;;;;5059615;27;92591;-69
2023/08/02 07:24:05;;;;;;;;;;;;;;;;;;5055443;27;93195;-71
2023/08/02 07:26:30;;;;;;;;;;;;;;;;;;5054520;27;92630;-69
2023/08/02 07:28:55;;;;;;;;;;;;;;;;;;5054699;27;91964;-66
2023/08/02 07:31:20;;;;;;;;;;;;;;;;;;5053154;27;93785;-67
2023/08/02 07:33:46;;;;;;;;;;;;;;;;;;5054267;27;92697;-66
2023/08/02 07:36:13;;;;;;;;;;;;;;;;;;5052133;27;95383;-67
2023/08/02 07:38:38;;;;;;;;;;;;;;;;;;5053133;27;92785;-66
2023/08/02 07:41:04;;;;;;;;;;;;;;;;;;5053803;27;93427;-68
2023/08/02 07:43:29;;;;;;;;;;;;;;;;;;5051865;27;95133;-70
2023/08/02 07:45:55;;;;;;;;;;;;;;;;;;5053361;27;94132;-74
2023/08/02 07:48:20;;;;;;;;;;;;;;;;;;5049624;27;92992;-70
2023/08/02 07:50:45;;;;;;;;;;;;;;;;;;5050627;27;92983;-67
2023/08/02 07:53:10;;;;;;;;;;;;;;;;;;5053731;27;92526;-65
2023/08/02 07:55:35;;;;;;;;;;;;;;;;;;5047057;27;94146;-67
2023/08/02 07:58:01;;;;;;;;;;;;;;;;;;5053709;27;92918;-69
2023/08/02 08:00:26;;;;;;;;;;;;;;;;;;5056753;27;93149;-71
2023/08/02 08:02:51;;;;;;;;;;;;;;;;;;5048313;27;93223;-72
2023/08/02 08:05:16;;;;;;;;;;;;;;;;;;5053546;27;92473;-67
2023/08/02 08:07:42;;;;;;;;;;;;;;;;;;5052131;27;93331;-73
2023/08/02 08:10:07;;;;;;;;;;;;;;;;;;5053445;27;93908;-69
2023/08/02 08:12:32;;;;;;;;;;;;;;;;;;5055827;27;92410;-68
2023/08/02 08:14:57;;;;;;;;;;;;;;;;;;5050872;27;92917;-70
2023/08/02 08:17:22;;;;;;;;;;;;;;;;;;5054012;27;93036;-69
2023/08/02 08:19:48;;;;;;;;;;;;;;;;;;5054939;27;93085;-68
2023/08/02 08:22:14;;;;;;;;;;;;;;;;;;5050556;27;92858;-72
2023/08/02 08:24:40;;;;;;;;;;;;;;;;;;5055045;27;93315;-70
2023/08/02 08:27:05;;;;;;;;;;;;;;;;;;5059743;27;93896;-70
2023/08/02 08:29:30;;;;;;;;;;;;;;;;;;5053518;27;93141;-68
2023/08/02 08:31:55;;;;;;;;;;;;;;;;;;5049507;27;92596;-67
2023/08/02 08:34:21;;;;;;;;;;;;;;;;;;5049736;27;92670;-68
2023/08/02 08:36:46;;;;;;;;;;;;;;;;;;5053694;27;92620;-70
2023/08/02 08:39:11;;;;;;;;;;;;;;;;;;5047830;27;93501;-68
2023/08/02 08:41:37;;;;;;;;;;;;;;;;;;5046552;27;92343;-71
2023/08/02 08:44:02;;;;;;;;;;;;;;;;;;5053530;27;92318;-70
2023/08/02 08:46:30;;;;;;;;;;;;;;;;;;5057503;27;92966;-70
2023/08/02 08:48:55;;;;;;;;;;;;;;;;;;5051806;27;93115;-68
2023/08/02 08:51:22;;;;;;;;;;;;;;;;;;5036765;27;96112;-70
2023/08/02 08:53:48;;;;;;;;;;;;;;;;;;5047669;27;93239;-70
2023/08/02 08:56:14;;;;;;;;;;;;;;;;;;5051298;27;92464;-70
2023/08/02 08:58:39;;;;;;;;;;;;;;;;;;5057118;27;92732;-70
2023/08/02 09:01:05;;;;;;;;;;;;;;;;;;5049254;27;93428;-70
2023/08/02 09:03:31;;;;;;;;;;;;;;;;;;5047278;27;92931;-76
2023/08/02 09:05:59;;;;;;;;;;;;;;;;;;5037504;27;94349;-77
2023/08/02 09:08:24;;;;;;;;;;;;;;;;;;5055851;27;94017;-73
2023/08/02 09:10:49;;;;;;;;;;;;;;;;;;5048316;27;93280;-68
2023/08/02 09:13:24;;;;;;;;;;;;;;;;;;5050907;27;93944;-70
2023/08/02 09:16:04;;;;;;;;;;;;;;;;;;5051272;27;92264;-72
2023/08/02 09:18:40;;;;;;;;;;;;;;;;;;5051994;27;93471;-69
2023/08/02 09:21:06;;;;;;;;;;;;;;;;;;5030519;27;95076;-69
2023/08/02 09:23:31;;;;;;;;;;;;;;;;;;5052775;27;93011;-69
2023/08/02 09:26:22;;;;;;;;;;;;;;;;;;5051342;27;93640;-67
2023/08/02 09:28:57;;;;;;;;;;;;;;;;;;5057785;27;92686;-68
2023/08/02 09:31:22;;;;;;;;;;;;;;;;;;5054272;27;91458;-66
2023/08/02 09:33:49;;;;;;;;;;;;;;;;;;5053361;27;93861;-68
2023/08/02 09:36:20;;;;;;;;;;;;;;;;;;5056818;27;93029;-66
2023/08/02 09:38:53;;;;;;;;;;;;;;;;;;5055123;27;93190;-67
2023/08/02 09:41:22;;;;;;;;;;;;;;;;;;5029527;27;93718;-68
2023/08/02 09:43:47;;;;;;;;;;;;;;;;;;5053688;27;92248;-68
2023/08/02 09:46:29;;;;;;;;;;;;;;;;;;5055422;27;92497;-67
2023/08/02 09:48:55;;;;;;;;;;;;;;;;;;5050404;27;93389;-66
2023/08/02 09:51:20;;;;;;;;;;;;;;;;;;5054254;27;92262;-67
2023/08/02 09:53:55;;;;;;;;;;;;;;;;;;5055051;27;92705;-68
2023/08/02 09:56:26;;;;;;;;;;;;;;;;;;5051648;27;92350;-68
2023/08/02 09:58:53;;;;;;;;;;;;;;;;;;5051183;27;93814;-73
2023/08/02 10:01:19;;;;;;;;;;;;;;;;;;5052242;27;94864;-70
2023/08/02 10:03:45;;;;;;;;;;;;;;;;;;5051542;27;93222;-70
2023/08/02 10:06:12;;;;;;;;;;;;;;;;;;5046611;27;93377;-67
2023/08/02 10:08:39;;;;;;;;;;;;;;;;;;5055056;27;92849;-70
2023/08/02 10:11:04;;;;;;;;;;;;;;;;;;5048485;27;93249;-68
2023/08/02 10:13:30;;;;;;;;;;;;;;;;;;5032110;27;92901;-67
2023/08/02 10:15:57;;;;;;;;;;;;;;;;;;5056979;27;92690;-66
2023/08/02 10:18:24;;;;;;;;;;;;;;;;;;5053000;27;93041;-71
2023/08/02 10:20:50;;;;;;;;;;;;;;;;;;5053869;27;93051;-69
2023/08/02 10:23:15;;;;;;;;;;;;;;;;;;5057928;27;92774;-69
2023/08/02 10:25:41;;;;;;;;;;;;;;;;;;5055221;27;93823;-73
2023/08/02 10:28:07;;;;;;;;;;;;;;;;;;5049062;27;93572;-70
2023/08/02 10:30:32;;;;;;;;;;;;;;;;;;5058755;27;92562;-68
2023/08/02 10:33:14;;;;;;;;;;;;;;;;;;5055922;27;92957;-68
2023/08/02 10:35:54;;;;;;;;;;;;;;;;;;5047984;27;93264;-67
2023/08/02 10:38:25;;;;;;;;;;;;;;;;;;5056196;27;92995;-69
2023/08/02 10:41:00;;;;;;;;;;;;;;;;;;5054230;27;92749;-72
2023/08/02 10:43:25;;;;;;;;;;;;;;;;;;5052783;27;93267;-69
2023/08/02 10:46:11;;;;;;;;;;;;;;;;;;5050655;27;93772;-71
2023/08/02 10:48:36;;;;;;;;;;;;;;;;;;5048542;27;93611;-75
2023/08/02 10:51:01;;;;;;;;;;;;;;;;;;5054677;27;92335;-67
2023/08/02 10:53:26;;;;;;;;;;;;;;;;;;5037621;27;94418;-83
2023/08/02 10:56:02;;;;;;;;;;;;;;;;;;5054341;27;93150;-80
2023/08/02 10:58:27;;;;;;;;;;;;;;;;;;5054577;27;93739;-69
2023/08/02 11:01:07;;;;;;;;;;;;;;;;;;5053311;27;92654;-69
2023/08/02 11:03:35;;;;;;;;;;;;;;;;;;5056342;27;93171;-70
2023/08/02 11:06:01;;;;;;;;;;;;;;;;;;5049579;27;93596;-69
2023/08/02 11:08:26;;;;;;;;;;;;;;;;;;5054907;27;92889;-70
2023/08/02 11:10:55;;;;;;;;;;;;;;;;;;5057324;27;92091;-70
2023/08/02 11:13:21;;;;;;;;;;;;;;;;;;5053440;27;93155;-70
2023/08/02 11:15:46;;;;;;;;;;;;;;;;;;5054005;27;93102;-69
2023/08/02 11:18:11;;;;;;;;;;;;;;;;;;5053211;27;94371;-68
2023/08/02 11:20:38;;;;;;;;;;;;;;;;;;5062158;27;92777;-69
2023/08/02 11:23:22;;;;;;;;;;;;;;;;;;5052769;27;92862;-69
2023/08/02 11:25:47;;;;;;;;;;;;;;;;;;5053765;27;93783;-69
2023/08/02 11:28:13;;;;;;;;;;;;;;;;;;5053779;27;93822;-69
2023/08/02 11:30:38;;;;;;;;;;;;;;;;;;5037834;27;93945;-69
2023/08/02 11:33:04;;;;;;;;;;;;;;;;;;5051760;27;92673;-71
2023/08/02 11:35:29;;;;;;;;;;;;;;;;;;5057141;27;92642;-71
2023/08/02 11:37:54;;;;;;;;;;;;;;;;;;5052588;27;93115;-70
2023/08/02 11:40:20;;;;;;;;;;;;;;;;;;5053686;27;92713;-71
2023/08/02 11:42:47;;;;;;;;;;;;;;;;;;5057038;27;93717;-70
2023/08/02 11:45:12;;;;;;;;;;;;;;;;;;5054978;27;93119;-69
2023/08/02 11:47:38;;;;;;;;;;;;;;;;;;5058502;27;92705;-70
2023/08/02 11:50:03;;;;;;;;;;;;;;;;;;5052892;27;93768;-69
2023/08/02 11:52:30;;;;;;;;;;;;;;;;;;5034341;27;95162;-70
2023/08/02 11:54:56;;;;;;;;;;;;;;;;;;5053571;27;93636;-70
2023/08/02 11:57:22;;;;;;;;;;;;;;;;;;5054012;27;92740;-69
2023/08/02 11:59:51;;;;;;;;;;;;;;;;;;5052344;27;92414;-67
2023/08/02 12:02:22;;;;;;;;;;;;;;;;;;5054527;27;93521;-69
2023/08/02 12:04:47;;;;;;;;;;;;;;;;;;5060919;27;92574;-66
2023/08/02 12:07:23;;;;;;;;;;;;;;;;;;5036457;27;94743;-69
2023/08/02 12:09:48;;;;;;;;;;;;;;;;;;5048764;27;92137;-69
2023/08/02 12:12:13;;;;;;;;;;;;;;;;;;5055551;27;93097;-67
2023/08/02 12:14:38;;;;;;;;;;;;;;;;;;5051087;27;92615;-67
2023/08/02 12:17:03;;;;;;;;;;;;;;;;;;5058821;27;92908;-66
2023/08/02 12:19:38;;;;;;;;;;;;;;;;;;5054431;27;92990;-69
2023/08/02 12:22:04;;;;;;;;;;;;;;;;;;5054356;27;93999;-68
2023/08/02 12:24:29;;;;;;;;;;;;;;;;;;5054712;27;92803;-68
2023/08/02 12:26:54;;;;;;;;;;;;;;;;;;5054095;27;92298;-71
2023/08/02 12:29:23;;;;;;;;;;;;;;;;;;5055550;27;93131;-69
2023/08/02 12:31:49;;;;;;;;;;;;;;;;;;5034291;27;93871;-68
2023/08/02 12:34:14;;;;;;;;;;;;;;;;;;5050393;27;95004;-69
2023/08/02 12:36:39;;;;;;;;;;;;;;;;;;5049541;27;92525;-69
2023/08/02 12:39:05;;;;;;;;;;;;;;;;;;5049933;27;92650;-71
2023/08/02 12:41:30;;;;;;;;;;;;;;;;;;5045522;27;93287;-70
2023/08/02 12:43:55;;;;;;;;;;;;;;;;;;5050581;27;92507;-70
2023/08/02 12:46:21;;;;;;;;;;;;;;;;;;5050497;27;92526;-71
2023/08/02 12:48:48;;;;;;;;;;;;;;;;;;5055522;27;92503;-68
2023/08/02 12:51:13;;;;;;;;;;;;;;;;;;5053212;27;92832;-68
2023/08/02 12:53:39;;;;;;;;;;;;;;;;;;5032664;27;93733;-68
2023/08/02 12:56:04;;;;;;;;;;;;;;;;;;5051430;27;95308;-72
2023/08/02 12:59:39;;;;;;;;;;;;;;;;;;5055729;27;84232;-67
2023/08/02 13:02:04;;;;;;;;;;;;;;;;;;5037343;27;90226;-68
2023/08/02 13:04:29;;;;;;;;;;;;;;;;;;5038847;27;89826;-67
2023/08/02 13:06:57;;;;;;;;;;;;;;;;;;5043602;27;89669;-67
2023/08/02 13:09:22;;;;;;;;;;;;;;;;;;5042227;27;90666;-67
2023/08/02 13:21:45;;;;;;;;;;;;;;;;;;5032192;27;82042;-68
2023/08/02 13:24:11;;;;;;;;;;;;;;;;;;5028774;27;89074;-67
2023/08/02 13:26:36;;;;;;;;;;;;;;;;;;5024584;27;89979;-68
2023/08/02 13:29:01;;;;;;;;;;;;;;;;;;5022955;28;90040;-66
2023/08/02 13:31:26;;;;;;;;;;;;;;;;;;5034538;27;89791;-66
2023/08/02 13:33:52;;;;;;;;;;;;;;;;;;5024883;27;89877;-66
2023/08/02 13:36:17;;;;;;;;;;;;;;;;;;5024994;27;92193;-67
2023/08/02 13:38:42;;;;;;;;;;;;;;;;;;5028669;27;92768;-69
2023/08/02 13:41:07;;;;;;;;;;;;;;;;;;5030405;27;89227;-70
2023/08/02 13:43:32;;;;;;;;;;;;;;;;;;5024657;27;89771;-70
2023/08/02 13:45:58;;;;;;;;;;;;;;;;;;5031920;27;89104;-73
2023/08/02 13:48:23;;;;;;;;;;;;;;;;;;5028785;27;90358;-71
2023/08/02 13:50:48;;;;;;;;;;;;;;;;;;5026895;27;89907;-73
2023/08/02 13:53:14;;;;;;;;;;;;;;;;;;5057598;27;89991;-71
2023/08/02 13:55:39;;;;;;;;;;;;;;;;;;5023562;27;90804;-69
2023/08/02 13:58:04;;;;;;;;;;;;;;;;;;5024388;27;89730;-67
2023/08/02 14:00:30;;;;;;;;;;;;;;;;;;5021723;27;89754;-70
2023/08/02 14:02:55;;;;;;;;;;;;;;;;;;5027329;27;89609;-69
2023/08/02 14:05:20;;;;;;;;;;;;;;;;;;5020444;27;90100;-66
2023/08/02 14:07:45;;;;;;;;;;;;;;;;;;5018835;27;89092;-70
2023/08/02 14:10:11;;;;;;;;;;;;;;;;;;5014268;27;89914;-66
2023/08/02 14:12:48;;;;;;;;;;;;;;;;;;5017563;27;89794;-71
2023/08/02 14:15:13;;;;;;;;;;;;;;;;;;5024967;27;89017;-65
2023/08/02 14:17:38;;;;;;;;;;;;;;;;;;5023706;27;90846;-67
2023/08/02 14:20:04;;;;;;;;;;;;;;;;;;5026610;27;89527;-66
2023/08/02 14:22:31;;;;;;;;;;;;;;;;;;5022215;27;89972;-72
2023/08/02 14:24:56;;;;;;;;;;;;;;;;;;5026926;27;89539;-73
2023/08/02 14:27:21;;;;;;;;;;;;;;;;;;5022632;27;89372;-69
2023/08/02 14:29:46;;;;;;;;;;;;;;;;;;5026031;27;89496;-67
2023/08/02 14:32:11;;;;;;;;;;;;;;;;;;5018305;27;89133;-66
2023/08/02 14:34:37;;;;;;;;;;;;;;;;;;5011505;28;89650;-66
2023/08/02 14:37:02;;;;;;;;;;;;;;;;;;5016871;28;89513;-66
2023/08/02 14:39:27;;;;;;;;;;;;;;;;;;5013082;28;89519;-65
2023/08/02 14:41:52;;;;;;;;;;;;;;;;;;5010406;28;89632;-67
2023/08/02 14:44:18;;;;;;;;;;;;;;;;;;5015322;28;89805;-67
2023/08/02 14:46:44;;;;;;;;;;;;;;;;;;5017726;28;90471;-68
2023/08/02 14:49:09;;;;;;;;;;;;;;;;;;5011598;28;91451;-67
2023/08/02 14:51:35;;;;;;;;;;;;;;;;;;5008808;28;91396;-66
2023/08/02 14:54:00;;;;;;;;;;;;;;;;;;5013146;28;90338;-68
2023/08/02 14:56:25;;;;;;;;;;;;;;;;;;5010001;28;93004;-68
2023/08/02 14:58:50;;;;;;;;;;;;;;;;;;5010482;28;89955;-68
2023/08/02 15:01:16;;;;;;;;;;;;;;;;;;5011935;28;89463;-68
2023/08/02 15:03:41;;;;;;;;;;;;;;;;;;5009112;28;89490;-65
2023/08/02 15:06:07;;;;;;;;;;;;;;;;;;5009156;28;89425;-65
2023/08/02 15:08:32;;;;;;;;;;;;;;;;;;5013869;28;89300;-65
2023/08/02 15:10:57;;;;;;;;;;;;;;;;;;5012536;28;89367;-65
2023/08/02 15:13:23;;;;;;;;;;;;;;;;;;5010816;28;89484;-65
2023/08/02 15:15:48;;;;;;;;;;;;;;;;;;5010133;28;91114;-65
2023/08/02 15:18:13;;;;;;;;;;;;;;;;;;5008598;28;89839;-66
2023/08/02 15:20:38;;;;;;;;;;;;;;;;;;4997328;28;89676;-67
2023/08/02 15:23:04;;;;;;;;;;;;;;;;;;5012113;28;89782;-66
2023/08/02 15:25:29;;;;;;;;;;;;;;;;;;5005992;28;89972;-67
2023/08/02 15:27:55;;;;;;;;;;;;;;;;;;4998513;28;89114;-69
2023/08/02 15:30:20;;;;;;;;;;;;;;;;;;5006943;28;90184;-67
2023/08/02 15:32:45;;;;;;;;;;;;;;;;;;5013240;28;89745;-67
2023/08/02 15:35:11;;;;;;;;;;;;;;;;;;5010698;28;90614;-67
2023/08/02 15:37:36;;;;;;;;;;;;;;;;;;5004789;28;89785;-67
2023/08/02 15:40:02;;;;;;;;;;;;;;;;;;5009703;28;89037;-67
2023/08/02 15:42:27;;;;;;;;;;;;;;;;;;5010118;28;89634;-66
2023/08/02 15:44:53;;;;;;;;;;;;;;;;;;5010418;28;89530;-72
2023/08/02 15:47:18;;;;;;;;;;;;;;;;;;5011316;28;89356;-67
2023/08/02 15:49:43;;;;;;;;;;;;;;;;;;5010566;28;89618;-73
2023/08/02 15:52:09;;;;;;;;;;;;;;;;;;5006595;28;89538;-77
2023/08/02 15:54:34;;;;;;;;;;;;;;;;;;5008290;28;92500;-71
2023/08/02 15:57:00;;;;;;;;;;;;;;;;;;5009427;28;89248;-75
2023/08/02 15:59:27;;;;;;;;;;;;;;;;;;5007486;28;89878;-75
2023/08/02 16:01:52;;;;;;;;;;;;;;;;;;5003525;28;89643;-79
2023/08/02 16:04:17;;;;;;;;;;;;;;;;;;5008255;28;89305;-72
2023/08/02 16:06:43;;;;;;;;;;;;;;;;;;5008022;28;89159;-81
2023/08/02 16:09:08;;;;;;;;;;;;;;;;;;5011572;28;90712;-80
2023/08/02 16:11:33;;;;;;;;;;;;;;;;;;5008565;28;90356;-73
2023/08/02 16:13:59;;;;;;;;;;;;;;;;;;5007026;28;89597;-77
2023/08/02 16:16:24;;;;;;;;;;;;;;;;;;5005137;28;92269;-76
2023/08/02 16:18:49;;;;;;;;;;;;;;;;;;5008562;28;90349;-78
2023/08/02 16:21:14;;;;;;;;;;;;;;;;;;5009531;28;89973;-80
2023/08/02 16:23:39;;;;;;;;;;;;;;;;;;5008813;28;90281;-71
2023/08/02 16:26:05;;;;;;;;;;;;;;;;;;5008643;28;91038;-72
2023/08/02 16:28:30;;;;;;;;;;;;;;;;;;5006871;28;89664;-64
2023/08/02 16:30:55;;;;;;;;;;;;;;;;;;5012227;28;89161;-68
2023/08/02 16:33:21;;;;;;;;;;;;;;;;;;5009432;28;90487;-69
2023/08/02 16:35:46;;;;;;;;;;;;;;;;;;5009377;28;89233;-66
2023/08/02 16:38:14;;;;;;;;;;;;;;;;;;5012957;28;89135;-68
2023/08/02 16:40:40;;;;;;;;;;;;;;;;;;5011844;28;91010;-69
2023/08/02 16:43:05;;;;;;;;;;;;;;;;;;5005261;27;90920;-69
2023/08/02 16:45:30;;;;;;;;;;;;;;;;;;5013010;28;89116;-75
2023/08/02 16:47:56;;;;;;;;;;;;;;;;;;5012592;28;89459;-66
2023/08/02 16:50:21;;;;;;;;;;;;;;;;;;5009275;28;91029;-68
2023/08/02 16:52:46;;;;;;;;;;;;;;;;;;5010168;28;90806;-65